sensor_id;sensor_type;location;lat;lon;timestamp;temperature;humidity
48454;DHT22;34261;55.678;12.464;2023-12-29T00:02:03;9.80;99.90
48454;DHT22;34261;55.678;12.464;2023-12-29T00:04:29;9.70;99.90
48454;DHT22;34261;55.678;12.464;2023-12-29T00:06:55;9.70;99.90
48454;DHT22;34261;55.678;12.464;2023-12-29T00:09:21;9.70;99.90
48454;DHT22;34261;55.678;12.464;2023-12-29T00:11:50;9.70;99.90
48454;DHT22;34261;55.678;12.464;2023-12-29T00:14:18;9.80;99.90
48454;DHT22;34261;55.678;12.464;2023-12-29T00:16:44;9.80;99.90
48454;DHT22;34261;55.678;12.464;2023-12-29T00:19:11;9.80;99.90
48454;DHT22;34261;55.678;12.464;2023-12-29T00:21:37;9.80;99.90
48454;DHT22;34261;55.678;12.464;2023-12-29T00:24:06;9.80;99.90
48454;DHT22;34261;55.678;12.464;2023-12-29T00:26:33;9.80;99.90
48454;DHT22;34261;55.678;12.464;2023-12-29T00:28:58;9.80;99.90
48454;DHT22;34261;55.678;12.464;2023-12-29T00:31:24;9.80;99.90
48454;DHT22;34261;55.678;12.464;2023-12-29T00:33:51;9.80;99.90
48454;DHT22;34261;55.678;12.464;2023-12-29T00:36:19;9.90;99.90
48454;DHT22;34261;55.678;12.464;2023-12-29T00:38:45;9.80;99.90
48454;DHT22;34261;55.678;12.464;2023-12-29T00:41:11;9.90;99.90
48454;DHT22;34261;55.678;12.464;2023-12-29T00:43:37;9.80;99.90
48454;DHT22;34261;55.678;12.464;2023-12-29T00:46:07;9.80;99.90
48454;DHT22;34261;55.678;12.464;2023-12-29T00:48:34;9.80;99.90
48454;DHT22;34261;55.678;12.464;2023-12-29T00:51:03;9.80;99.90
48454;DHT22;34261;55.678;12.464;2023-12-29T00:53:30;9.90;99.90
48454;DHT22;34261;55.678;12.464;2023-12-29T00:55:58;9.80;99.90
48454;DHT22;34261;55.678;12.464;2023-12-29T00:58:24;9.80;99.90
48454;DHT22;34261;55.678;12.464;2023-12-29T01:00:50;9.80;99.90
48454;DHT22;34261;55.678;12.464;2023-12-29T01:03:15;9.70;99.90
48454;DHT22;34261;55.678;12.464;2023-12-29T01:05:41;9.70;99.90
48454;DHT22;34261;55.678;12.464;2023-12-29T01:08:07;9.70;99.90
48454;DHT22;34261;55.678;12.464;2023-12-29T01:10:32;9.70;99.90
48454;DHT22;34261;55.678;12.464;2023-12-29T01:12:58;9.70;99.90
48454;DHT22;34261;55.678;12.464;2023-12-29T01:15:24;9.70;99.90
48454;DHT22;34261;55.678;12.464;2023-12-29T01:17:49;9.60;99.90
48454;DHT22;34261;55.678;12.464;2023-12-29T01:20:15;9.60;99.90
48454;DHT22;34261;55.678;12.464;2023-12-29T01:22:41;9.60;99.90
48454;DHT22;34261;55.678;12.464;2023-12-29T01:25:07;9.70;99.90
48454;DHT22;34261;55.678;12.464;2023-12-29T01:27:33;9.70;99.90
48454;DHT22;34261;55.678;12.464;2023-12-29T01:29:58;9.60;99.90
48454;DHT22;34261;55.678;12.464;2023-12-29T01:32:25;9.60;99.90
48454;DHT22;34261;55.678;12.464;2023-12-29T01:34:52;9.60;99.90
48454;DHT22;34261;55.678;12.464;2023-12-29T01:37:18;9.60;99.90
48454;DHT22;34261;55.678;12.464;2023-12-29T01:39:44;9.60;99.90
48454;DHT22;34261;55.678;12.464;2023-12-29T01:42:11;9.60;99.90
48454;DHT22;34261;55.678;12.464;2023-12-29T01:44:37;9.50;99.90
48454;DHT22;34261;55.678;12.464;2023-12-29T01:47:04;9.50;99.90
48454;DHT22;34261;55.678;12.464;2023-12-29T01:49:35;9.50;99.90
48454;DHT22;34261;55.678;12.464;2023-12-29T01:52:03;9.50;99.90
48454;DHT22;34261;55.678;12.464;2023-12-29T01:54:33;9.50;99.90
48454;DHT22;34261;55.678;12.464;2023-12-29T01:57:00;9.40;99.90
48454;DHT22;34261;55.678;12.464;2023-12-29T01:59:27;9.40;99.90
48454;DHT22;34261;55.678;12.464;2023-12-29T02:01:56;9.40;99.90
48454;DHT22;34261;55.678;12.464;2023-12-29T02:04:24;9.40;99.90
48454;DHT22;34261;55.678;12.464;2023-12-29T02:06:51;9.40;99.90
48454;DHT22;34261;55.678;12.464;2023-12-29T02:09:20;9.40;99.90
48454;DHT22;34261;55.678;12.464;2023-12-29T02:11:47;9.40;99.90
48454;DHT22;34261;55.678;12.464;2023-12-29T02:14:14;9.40;99.90
48454;DHT22;34261;55.678;12.464;2023-12-29T02:16:52;9.30;99.90
48454;DHT22;34261;55.678;12.464;2023-12-29T02:19:40;9.30;99.90
48454;DHT22;34261;55.678;12.464;2023-12-29T02:22:08;9.30;99.90
48454;DHT22;34261;55.678;12.464;2023-12-29T02:24:35;9.20;99.90
48454;DHT22;34261;55.678;12.464;2023-12-29T02:30:09;9.20;99.90
48454;DHT22;34261;55.678;12.464;2023-12-29T02:32:39;9.20;99.90
48454;DHT22;34261;55.678;12.464;2023-12-29T02:35:09;9.20;99.90
48454;DHT22;34261;55.678;12.464;2023-12-29T02:37:36;9.20;99.90
48454;DHT22;34261;55.678;12.464;2023-12-29T02:40:03;9.20;99.90
48454;DHT22;34261;55.678;12.464;2023-12-29T02:42:29;9.10;99.90
48454;DHT22;34261;55.678;12.464;2023-12-29T02:44:55;9.10;99.90
48454;DHT22;34261;55.678;12.464;2023-12-29T02:47:21;9.10;99.90
48454;DHT22;34261;55.678;12.464;2023-12-29T02:49:47;9.10;99.90
48454;DHT22;34261;55.678;12.464;2023-12-29T02:52:13;9.10;99.90
48454;DHT22;34261;55.678;12.464;2023-12-29T02:54:39;9.10;99.90
48454;DHT22;34261;55.678;12.464;2023-12-29T02:57:04;9.10;99.90
48454;DHT22;34261;55.678;12.464;2023-12-29T02:59:30;9.10;99.90
48454;DHT22;34261;55.678;12.464;2023-12-29T03:01:57;9.10;99.90
48454;DHT22;34261;55.678;12.464;2023-12-29T03:04:23;9.10;99.90
48454;DHT22;34261;55.678;12.464;2023-12-29T03:06:48;9.10;99.90
48454;DHT22;34261;55.678;12.464;2023-12-29T03:09:15;9.10;99.90
48454;DHT22;34261;55.678;12.464;2023-12-29T03:11:41;9.10;99.90
48454;DHT22;34261;55.678;12.464;2023-12-29T03:14:06;9.10;99.90
48454;DHT22;34261;55.678;12.464;2023-12-29T03:16:34;9.00;99.90
48454;DHT22;34261;55.678;12.464;2023-12-29T03:18:59;9.00;99.90
48454;DHT22;34261;55.678;12.464;2023-12-29T03:21:26;9.00;99.90
48454;DHT22;34261;55.678;12.464;2023-12-29T03:23:51;8.90;99.90
48454;DHT22;34261;55.678;12.464;2023-12-29T03:26:17;8.90;99.90
48454;DHT22;34261;55.678;12.464;2023-12-29T03:28:43;8.90;99.90
48454;DHT22;34261;55.678;12.464;2023-12-29T03:31:08;8.90;99.90
48454;DHT22;34261;55.678;12.464;2023-12-29T03:33:34;8.90;99.90
48454;DHT22;34261;55.678;12.464;2023-12-29T03:36:00;8.90;99.90
48454;DHT22;34261;55.678;12.464;2023-12-29T03:38:25;8.80;99.90
48454;DHT22;34261;55.678;12.464;2023-12-29T03:40:51;8.90;99.90
48454;DHT22;34261;55.678;12.464;2023-12-29T03:43:17;8.90;99.90
48454;DHT22;34261;55.678;12.464;2023-12-29T03:45:42;8.90;99.90
48454;DHT22;34261;55.678;12.464;2023-12-29T03:48:08;8.90;99.90
48454;DHT22;34261;55.678;12.464;2023-12-29T03:50:34;8.90;99.90
48454;DHT22;34261;55.678;12.464;2023-12-29T03:53:00;8.90;99.90
48454;DHT22;34261;55.678;12.464;2023-12-29T03:55:25;8.90;99.90
48454;DHT22;34261;55.678;12.464;2023-12-29T03:57:51;8.90;99.90
48454;DHT22;34261;55.678;12.464;2023-12-29T04:00:17;8.90;99.90
48454;DHT22;34261;55.678;12.464;2023-12-29T04:02:43;8.90;99.90
48454;DHT22;34261;55.678;12.464;2023-12-29T04:05:09;8.80;99.90
48454;DHT22;34261;55.678;12.464;2023-12-29T04:19:35;8.60;99.90
48454;DHT22;34261;55.678;12.464;2023-12-29T04:22:00;8.70;99.90
48454;DHT22;34261;55.678;12.464;2023-12-29T04:24:26;8.70;99.90
48454;DHT22;34261;55.678;12.464;2023-12-29T04:27:18;8.70;99.90
48454;DHT22;34261;55.678;12.464;2023-12-29T04:43:10;8.70;99.90
48454;DHT22;34261;55.678;12.464;2023-12-29T04:45:36;8.70;99.90
48454;DHT22;34261;55.678;12.464;2023-12-29T04:48:02;8.70;99.90
48454;DHT22;34261;55.678;12.464;2023-12-29T04:50:27;8.70;99.90
48454;DHT22;34261;55.678;12.464;2023-12-29T04:52:53;8.70;99.90
48454;DHT22;34261;55.678;12.464;2023-12-29T04:55:19;8.70;99.90
48454;DHT22;34261;55.678;12.464;2023-12-29T04:57:44;8.70;99.90
48454;DHT22;34261;55.678;12.464;2023-12-29T05:00:10;8.80;99.90
48454;DHT22;34261;55.678;12.464;2023-12-29T05:02:36;8.80;99.90
48454;DHT22;34261;55.678;12.464;2023-12-29T05:05:02;8.80;99.90
48454;DHT22;34261;55.678;12.464;2023-12-29T05:07:27;8.80;99.90
48454;DHT22;34261;55.678;12.464;2023-12-29T05:09:54;8.80;99.90
48454;DHT22;34261;55.678;12.464;2023-12-29T05:12:20;8.80;99.90
48454;DHT22;34261;55.678;12.464;2023-12-29T05:14:45;8.80;99.90
48454;DHT22;34261;55.678;12.464;2023-12-29T05:17:11;8.80;99.90
48454;DHT22;34261;55.678;12.464;2023-12-29T05:19:37;8.80;99.90
48454;DHT22;34261;55.678;12.464;2023-12-29T05:22:02;8.80;99.90
48454;DHT22;34261;55.678;12.464;2023-12-29T05:24:28;8.80;99.90
48454;DHT22;34261;55.678;12.464;2023-12-29T05:26:54;8.90;99.90
48454;DHT22;34261;55.678;12.464;2023-12-29T05:29:19;8.90;99.90
48454;DHT22;34261;55.678;12.464;2023-12-29T05:31:48;8.90;99.90
48454;DHT22;34261;55.678;12.464;2023-12-29T05:34:14;8.90;99.90
48454;DHT22;34261;55.678;12.464;2023-12-29T05:36:39;8.80;99.90
48454;DHT22;34261;55.678;12.464;2023-12-29T05:39:06;8.70;99.90
48454;DHT22;34261;55.678;12.464;2023-12-29T05:41:32;8.70;99.90
48454;DHT22;34261;55.678;12.464;2023-12-29T05:43:57;8.70;99.90
48454;DHT22;34261;55.678;12.464;2023-12-29T05:46:25;8.70;99.90
48454;DHT22;34261;55.678;12.464;2023-12-29T05:48:51;8.70;99.90
48454;DHT22;34261;55.678;12.464;2023-12-29T05:51:17;8.70;99.90
48454;DHT22;34261;55.678;12.464;2023-12-29T05:53:43;8.80;99.90
48454;DHT22;34261;55.678;12.464;2023-12-29T05:56:12;8.80;99.90
48454;DHT22;34261;55.678;12.464;2023-12-29T05:58:38;8.80;99.90
48454;DHT22;34261;55.678;12.464;2023-12-29T06:01:03;8.80;99.90
48454;DHT22;34261;55.678;12.464;2023-12-29T06:03:29;8.80;99.90
48454;DHT22;34261;55.678;12.464;2023-12-29T06:05:55;8.90;99.90
48454;DHT22;34261;55.678;12.464;2023-12-29T06:08:21;8.80;99.90
48454;DHT22;34261;55.678;12.464;2023-12-29T06:10:46;8.80;99.90
48454;DHT22;34261;55.678;12.464;2023-12-29T06:13:12;8.90;99.90
48454;DHT22;34261;55.678;12.464;2023-12-29T06:15:38;8.90;99.90
48454;DHT22;34261;55.678;12.464;2023-12-29T06:18:04;8.90;99.90
48454;DHT22;34261;55.678;12.464;2023-12-29T06:20:30;8.90;99.90
48454;DHT22;34261;55.678;12.464;2023-12-29T06:22:57;8.90;99.90
48454;DHT22;34261;55.678;12.464;2023-12-29T06:25:24;8.80;99.90
48454;DHT22;34261;55.678;12.464;2023-12-29T06:27:49;8.80;99.90
48454;DHT22;34261;55.678;12.464;2023-12-29T06:30:17;8.80;99.90
48454;DHT22;34261;55.678;12.464;2023-12-29T06:32:43;8.70;99.90
48454;DHT22;34261;55.678;12.464;2023-12-29T06:35:19;8.60;99.90
48454;DHT22;34261;55.678;12.464;2023-12-29T06:37:45;8.60;99.90
48454;DHT22;34261;55.678;12.464;2023-12-29T06:40:15;8.70;99.90
48454;DHT22;34261;55.678;12.464;2023-12-29T06:42:41;8.70;99.90
48454;DHT22;34261;55.678;12.464;2023-12-29T06:45:08;8.70;99.90
48454;DHT22;34261;55.678;12.464;2023-12-29T06:47:37;8.70;99.90
48454;DHT22;34261;55.678;12.464;2023-12-29T06:50:06;8.70;99.90
48454;DHT22;34261;55.678;12.464;2023-12-29T06:52:33;8.70;99.90
48454;DHT22;34261;55.678;12.464;2023-12-29T06:55:19;8.70;99.90
48454;DHT22;34261;55.678;12.464;2023-12-29T06:57:50;8.70;99.90
48454;DHT22;34261;55.678;12.464;2023-12-29T07:00:16;8.70;99.90
48454;DHT22;34261;55.678;12.464;2023-12-29T07:02:43;8.70;99.90
48454;DHT22;34261;55.678;12.464;2023-12-29T07:05:11;8.70;99.90
48454;DHT22;34261;55.678;12.464;2023-12-29T07:07:59;8.80;99.90
48454;DHT22;34261;55.678;12.464;2023-12-29T07:14:30;8.80;99.90
48454;DHT22;34261;55.678;12.464;2023-12-29T07:29:56;8.70;99.90
48454;DHT22;34261;55.678;12.464;2023-12-29T07:32:24;8.70;99.90
48454;DHT22;34261;55.678;12.464;2023-12-29T07:34:50;8.70;99.90
48454;DHT22;34261;55.678;12.464;2023-12-29T07:37:22;8.70;99.90
48454;DHT22;34261;55.678;12.464;2023-12-29T07:40:01;8.80;99.90
48454;DHT22;34261;55.678;12.464;2023-12-29T07:42:31;8.80;99.90
48454;DHT22;34261;55.678;12.464;2023-12-29T07:45:19;8.80;99.90
48454;DHT22;34261;55.678;12.464;2023-12-29T07:48:03;8.90;99.90
48454;DHT22;34261;55.678;12.464;2023-12-29T07:50:41;8.80;99.90
48454;DHT22;34261;55.678;12.464;2023-12-29T07:53:06;8.80;99.90
48454;DHT22;34261;55.678;12.464;2023-12-29T07:55:39;8.80;99.90
48454;DHT22;34261;55.678;12.464;2023-12-29T07:58:06;8.80;99.90
48454;DHT22;34261;55.678;12.464;2023-12-29T08:00:32;8.80;99.90
48454;DHT22;34261;55.678;12.464;2023-12-29T08:02:59;8.80;99.90
48454;DHT22;34261;55.678;12.464;2023-12-29T08:05:26;8.80;99.90
48454;DHT22;34261;55.678;12.464;2023-12-29T08:07:54;8.80;99.90
48454;DHT22;34261;55.678;12.464;2023-12-29T08:10:36;8.80;99.90
48454;DHT22;34261;55.678;12.464;2023-12-29T08:13:19;8.80;99.90
48454;DHT22;34261;55.678;12.464;2023-12-29T08:15:49;8.80;99.90
48454;DHT22;34261;55.678;12.464;2023-12-29T08:18:24;8.80;99.90
48454;DHT22;34261;55.678;12.464;2023-12-29T08:21:18;8.80;99.90
48454;DHT22;34261;55.678;12.464;2023-12-29T08:23:45;8.80;99.90
48454;DHT22;34261;55.678;12.464;2023-12-29T08:26:12;8.70;99.90
48454;DHT22;34261;55.678;12.464;2023-12-29T08:28:40;8.70;99.90
48454;DHT22;34261;55.678;12.464;2023-12-29T08:31:08;8.70;99.90
48454;DHT22;34261;55.678;12.464;2023-12-29T08:33:36;8.70;99.90
48454;DHT22;34261;55.678;12.464;2023-12-29T08:36:26;8.70;99.90
48454;DHT22;34261;55.678;12.464;2023-12-29T08:39:05;8.70;99.90
48454;DHT22;34261;55.678;12.464;2023-12-29T08:59:11;8.90;99.90
48454;DHT22;34261;55.678;12.464;2023-12-29T09:01:37;8.90;99.90
48454;DHT22;34261;55.678;12.464;2023-12-29T09:04:03;8.90;99.90
48454;DHT22;34261;55.678;12.464;2023-12-29T09:06:35;9.00;99.90
48454;DHT22;34261;55.678;12.464;2023-12-29T09:09:00;8.90;99.90
48454;DHT22;34261;55.678;12.464;2023-12-29T09:11:26;8.90;99.90
48454;DHT22;34261;55.678;12.464;2023-12-29T09:13:53;8.90;99.90
48454;DHT22;34261;55.678;12.464;2023-12-29T09:16:19;8.90;99.90
48454;DHT22;34261;55.678;12.464;2023-12-29T09:18:44;9.00;99.90
48454;DHT22;34261;55.678;12.464;2023-12-29T09:21:10;9.00;99.90
48454;DHT22;34261;55.678;12.464;2023-12-29T09:23:35;9.00;99.90
48454;DHT22;34261;55.678;12.464;2023-12-29T09:26:04;9.00;99.90
48454;DHT22;34261;55.678;12.464;2023-12-29T09:28:33;9.00;99.90
48454;DHT22;34261;55.678;12.464;2023-12-29T09:31:02;9.00;99.90
48454;DHT22;34261;55.678;12.464;2023-12-29T09:33:28;9.00;99.90
48454;DHT22;34261;55.678;12.464;2023-12-29T09:35:53;9.00;99.90
48454;DHT22;34261;55.678;12.464;2023-12-29T09:38:19;9.00;99.90
48454;DHT22;34261;55.678;12.464;2023-12-29T09:40:46;9.00;99.90
48454;DHT22;34261;55.678;12.464;2023-12-29T09:43:12;9.00;99.90
48454;DHT22;34261;55.678;12.464;2023-12-29T09:45:38;9.10;99.90
48454;DHT22;34261;55.678;12.464;2023-12-29T09:48:07;9.10;99.90
48454;DHT22;34261;55.678;12.464;2023-12-29T09:50:34;9.20;99.90
48454;DHT22;34261;55.678;12.464;2023-12-29T09:53:08;9.30;99.90
48454;DHT22;34261;55.678;12.464;2023-12-29T09:55:36;9.30;99.90
48454;DHT22;34261;55.678;12.464;2023-12-29T09:58:05;9.40;99.90
48454;DHT22;34261;55.678;12.464;2023-12-29T10:00:36;9.50;99.90
48454;DHT22;34261;55.678;12.464;2023-12-29T10:03:02;9.50;99.90
48454;DHT22;34261;55.678;12.464;2023-12-29T10:05:28;9.70;99.90
48454;DHT22;34261;55.678;12.464;2023-12-29T10:07:54;9.70;99.90
48454;DHT22;34261;55.678;12.464;2023-12-29T10:10:23;9.80;99.90
48454;DHT22;34261;55.678;12.464;2023-12-29T10:12:57;9.80;99.90
48454;DHT22;34261;55.678;12.464;2023-12-29T10:21:07;9.80;99.90
48454;DHT22;34261;55.678;12.464;2023-12-29T10:23:40;9.90;99.90
48454;DHT22;34261;55.678;12.464;2023-12-29T10:26:11;10.00;99.90
48454;DHT22;34261;55.678;12.464;2023-12-29T10:49:33;9.90;99.90
48454;DHT22;34261;55.678;12.464;2023-12-29T10:52:11;9.90;99.90
48454;DHT22;34261;55.678;12.464;2023-12-29T10:54:38;9.90;99.90
48454;DHT22;34261;55.678;12.464;2023-12-29T10:57:04;9.90;99.90
48454;DHT22;34261;55.678;12.464;2023-12-29T10:59:30;9.80;99.90
48454;DHT22;34261;55.678;12.464;2023-12-29T11:02:02;9.70;99.90
48454;DHT22;34261;55.678;12.464;2023-12-29T11:04:33;9.70;99.90
48454;DHT22;34261;55.678;12.464;2023-12-29T11:07:05;9.70;99.90
48454;DHT22;34261;55.678;12.464;2023-12-29T11:09:39;9.70;99.90
48454;DHT22;34261;55.678;12.464;2023-12-29T11:12:24;9.60;99.90
48454;DHT22;34261;55.678;12.464;2023-12-29T11:14:51;9.50;99.90
48454;DHT22;34261;55.678;12.464;2023-12-29T12:02:27;9.00;99.90
48454;DHT22;34261;55.678;12.464;2023-12-29T12:04:53;9.00;99.90
48454;DHT22;34261;55.678;12.464;2023-12-29T12:09:49;9.10;99.90
48454;DHT22;34261;55.678;12.464;2023-12-29T12:12:41;9.20;99.90
48454;DHT22;34261;55.678;12.464;2023-12-29T12:15:35;9.30;99.90
48454;DHT22;34261;55.678;12.464;2023-12-29T12:23:46;9.30;99.90
48454;DHT22;34261;55.678;12.464;2023-12-29T12:26:13;9.30;99.90
48454;DHT22;34261;55.678;12.464;2023-12-29T12:31:31;9.30;99.90
48454;DHT22;34261;55.678;12.464;2023-12-29T12:33:57;9.30;99.90
48454;DHT22;34261;55.678;12.464;2023-12-29T12:36:23;9.30;99.90
48454;DHT22;34261;55.678;12.464;2023-12-29T12:38:55;9.30;99.90
48454;DHT22;34261;55.678;12.464;2023-12-29T12:41:22;9.40;99.90
48454;DHT22;34261;55.678;12.464;2023-12-29T13:20:03;9.10;99.90
48454;DHT22;34261;55.678;12.464;2023-12-29T13:22:30;9.10;99.90
48454;DHT22;34261;55.678;12.464;2023-12-29T13:24:56;9.10;99.90
48454;DHT22;34261;55.678;12.464;2023-12-29T13:27:25;9.10;99.90
48454;DHT22;34261;55.678;12.464;2023-12-29T13:29:52;9.10;99.90
48454;DHT22;34261;55.678;12.464;2023-12-29T13:32:27;9.00;99.90
48454;DHT22;34261;55.678;12.464;2023-12-29T13:40:28;8.90;99.90
48454;DHT22;34261;55.678;12.464;2023-12-29T13:42:59;8.70;99.90
48454;DHT22;34261;55.678;12.464;2023-12-29T13:45:26;8.60;99.90
48454;DHT22;34261;55.678;12.464;2023-12-29T13:47:53;8.60;99.90
48454;DHT22;34261;55.678;12.464;2023-12-29T13:50:19;8.50;99.90
48454;DHT22;34261;55.678;12.464;2023-12-29T13:52:51;8.50;99.90
48454;DHT22;34261;55.678;12.464;2023-12-29T13:55:24;8.50;99.90
48454;DHT22;34261;55.678;12.464;2023-12-29T13:57:50;8.60;99.90
48454;DHT22;34261;55.678;12.464;2023-12-29T14:00:24;8.60;99.90
48454;DHT22;34261;55.678;12.464;2023-12-29T14:05:52;8.60;99.90
48454;DHT22;34261;55.678;12.464;2023-12-29T14:08:26;8.60;99.90
48454;DHT22;34261;55.678;12.464;2023-12-29T14:10:54;8.60;99.90
48454;DHT22;34261;55.678;12.464;2023-12-29T14:13:22;8.60;99.90
48454;DHT22;34261;55.678;12.464;2023-12-29T14:15:48;8.60;99.90
48454;DHT22;34261;55.678;12.464;2023-12-29T14:21:23;8.60;99.90
48454;DHT22;34261;55.678;12.464;2023-12-29T14:24:24;8.60;99.90
48454;DHT22;34261;55.678;12.464;2023-12-29T14:29:18;8.60;99.90
48454;DHT22;34261;55.678;12.464;2023-12-29T14:31:45;8.60;99.90
48454;DHT22;34261;55.678;12.464;2023-12-29T14:34:13;8.70;99.90
48454;DHT22;34261;55.678;12.464;2023-12-29T14:37:04;8.60;99.90
48454;DHT22;34261;55.678;12.464;2023-12-29T14:39:39;8.60;99.90
48454;DHT22;34261;55.678;12.464;2023-12-29T14:42:23;8.70;99.90
48454;DHT22;34261;55.678;12.464;2023-12-29T14:44:49;8.60;99.90
48454;DHT22;34261;55.678;12.464;2023-12-29T14:47:17;8.70;99.90
48454;DHT22;34261;55.678;12.464;2023-12-29T14:50:24;8.70;99.90
48454;DHT22;34261;55.678;12.464;2023-12-29T14:53:11;8.70;99.90
48454;DHT22;34261;55.678;12.464;2023-12-29T14:55:37;8.60;99.90
48454;DHT22;34261;55.678;12.464;2023-12-29T14:58:03;8.60;99.90
48454;DHT22;34261;55.678;12.464;2023-12-29T15:00:28;8.60;99.90
48454;DHT22;34261;55.678;12.464;2023-12-29T15:02:54;8.60;99.90
48454;DHT22;34261;55.678;12.464;2023-12-29T15:05:20;8.50;99.90
48454;DHT22;34261;55.678;12.464;2023-12-29T15:07:46;8.60;99.90
48454;DHT22;34261;55.678;12.464;2023-12-29T15:10:15;8.50;99.90
48454;DHT22;34261;55.678;12.464;2023-12-29T15:12:41;8.50;99.90
48454;DHT22;34261;55.678;12.464;2023-12-29T15:15:08;8.50;99.90
48454;DHT22;34261;55.678;12.464;2023-12-29T15:17:38;8.50;99.90
48454;DHT22;34261;55.678;12.464;2023-12-29T15:20:05;8.40;99.90
48454;DHT22;34261;55.678;12.464;2023-12-29T15:22:30;8.50;99.90
48454;DHT22;34261;55.678;12.464;2023-12-29T15:24:56;8.40;99.90
48454;DHT22;34261;55.678;12.464;2023-12-29T15:27:23;8.50;99.90
48454;DHT22;34261;55.678;12.464;2023-12-29T15:29:51;8.50;99.90
48454;DHT22;34261;55.678;12.464;2023-12-29T15:32:17;8.50;99.90
48454;DHT22;34261;55.678;12.464;2023-12-29T15:34:43;8.50;99.90
48454;DHT22;34261;55.678;12.464;2023-12-29T15:37:09;8.40;99.90
48454;DHT22;34261;55.678;12.464;2023-12-29T15:39:34;8.40;99.90
48454;DHT22;34261;55.678;12.464;2023-12-29T15:42:00;8.40;99.90
48454;DHT22;34261;55.678;12.464;2023-12-29T15:44:28;8.30;99.90
48454;DHT22;34261;55.678;12.464;2023-12-29T15:46:59;8.40;99.90
48454;DHT22;34261;55.678;12.464;2023-12-29T15:49:26;8.30;99.90
48454;DHT22;34261;55.678;12.464;2023-12-29T15:51:52;8.30;99.90
48454;DHT22;34261;55.678;12.464;2023-12-29T15:54:19;8.30;99.90
48454;DHT22;34261;55.678;12.464;2023-12-29T15:56:45;8.30;99.90
48454;DHT22;34261;55.678;12.464;2023-12-29T15:59:12;8.40;99.90
48454;DHT22;34261;55.678;12.464;2023-12-29T16:01:38;8.40;99.90
48454;DHT22;34261;55.678;12.464;2023-12-29T16:04:06;8.40;99.90
48454;DHT22;34261;55.678;12.464;2023-12-29T16:06:31;8.40;99.90
48454;DHT22;34261;55.678;12.464;2023-12-29T16:09:04;8.40;99.90
48454;DHT22;34261;55.678;12.464;2023-12-29T16:11:35;8.50;99.90
48454;DHT22;34261;55.678;12.464;2023-12-29T16:14:03;8.50;99.90
48454;DHT22;34261;55.678;12.464;2023-12-29T16:16:32;8.50;99.90
48454;DHT22;34261;55.678;12.464;2023-12-29T16:18:58;8.60;99.90
48454;DHT22;34261;55.678;12.464;2023-12-29T16:21:26;8.50;99.90
48454;DHT22;34261;55.678;12.464;2023-12-29T16:23:53;8.50;99.90
48454;DHT22;34261;55.678;12.464;2023-12-29T16:26:19;8.60;99.90
48454;DHT22;34261;55.678;12.464;2023-12-29T16:28:45;8.60;99.90
48454;DHT22;34261;55.678;12.464;2023-12-29T16:31:11;8.60;99.90
48454;DHT22;34261;55.678;12.464;2023-12-29T16:33:39;8.60;99.90
48454;DHT22;34261;55.678;12.464;2023-12-29T16:36:12;8.60;99.90
48454;DHT22;34261;55.678;12.464;2023-12-29T16:38:51;8.60;99.90
48454;DHT22;34261;55.678;12.464;2023-12-29T16:41:20;8.60;99.90
48454;DHT22;34261;55.678;12.464;2023-12-29T16:43:47;8.70;99.90
48454;DHT22;34261;55.678;12.464;2023-12-29T16:46:14;8.60;99.90
48454;DHT22;34261;55.678;12.464;2023-12-29T16:48:43;8.70;99.90
48454;DHT22;34261;55.678;12.464;2023-12-29T16:51:08;8.60;99.90
48454;DHT22;34261;55.678;12.464;2023-12-29T16:53:38;8.60;99.90
48454;DHT22;34261;55.678;12.464;2023-12-29T16:56:07;8.60;99.90
48454;DHT22;34261;55.678;12.464;2023-12-29T16:58:33;8.60;99.90
48454;DHT22;34261;55.678;12.464;2023-12-29T17:01:00;8.60;99.90
48454;DHT22;34261;55.678;12.464;2023-12-29T17:03:31;8.50;99.90
48454;DHT22;34261;55.678;12.464;2023-12-29T17:06:20;8.50;99.90
48454;DHT22;34261;55.678;12.464;2023-12-29T17:08:46;8.50;99.90
48454;DHT22;34261;55.678;12.464;2023-12-29T17:11:13;8.50;99.90
48454;DHT22;34261;55.678;12.464;2023-12-29T17:13:42;8.50;99.90
48454;DHT22;34261;55.678;12.464;2023-12-29T17:16:08;8.50;99.90
48454;DHT22;34261;55.678;12.464;2023-12-29T17:18:35;8.50;99.90
48454;DHT22;34261;55.678;12.464;2023-12-29T17:21:07;8.50;99.90
48454;DHT22;34261;55.678;12.464;2023-12-29T17:23:34;8.50;99.90
48454;DHT22;34261;55.678;12.464;2023-12-29T17:26:01;8.50;99.90
48454;DHT22;34261;55.678;12.464;2023-12-29T17:28:32;8.50;99.90
48454;DHT22;34261;55.678;12.464;2023-12-29T17:31:01;8.50;99.90
48454;DHT22;34261;55.678;12.464;2023-12-29T17:36:13;8.60;99.90
48454;DHT22;34261;55.678;12.464;2023-12-29T17:38:39;8.60;99.90
48454;DHT22;34261;55.678;12.464;2023-12-29T17:41:07;8.60;99.90
48454;DHT22;34261;55.678;12.464;2023-12-29T17:43:33;8.60;99.90
48454;DHT22;34261;55.678;12.464;2023-12-29T17:46:32;8.60;99.90
48454;DHT22;34261;55.678;12.464;2023-12-29T17:48:58;8.70;99.90
48454;DHT22;34261;55.678;12.464;2023-12-29T17:51:24;8.70;99.90
48454;DHT22;34261;55.678;12.464;2023-12-29T18:04:15;8.80;99.90
48454;DHT22;34261;55.678;12.464;2023-12-29T18:06:41;8.80;99.90
48454;DHT22;34261;55.678;12.464;2023-12-29T18:09:10;8.80;99.90
48454;DHT22;34261;55.678;12.464;2023-12-29T18:11:40;8.80;99.90
48454;DHT22;34261;55.678;12.464;2023-12-29T18:16:53;8.80;99.90
48454;DHT22;34261;55.678;12.464;2023-12-29T18:19:19;8.90;99.90
48454;DHT22;34261;55.678;12.464;2023-12-29T20:38:09;8.10;99.90
48454;DHT22;34261;55.678;12.464;2023-12-29T20:40:38;8.20;99.90
48454;DHT22;34261;55.678;12.464;2023-12-29T20:45:43;8.20;99.90
48454;DHT22;34261;55.678;12.464;2023-12-29T20:48:10;8.20;99.90
48454;DHT22;34261;55.678;12.464;2023-12-29T20:50:36;8.30;99.90
48454;DHT22;34261;55.678;12.464;2023-12-29T20:53:05;8.30;99.90
48454;DHT22;34261;55.678;12.464;2023-12-29T20:55:32;8.30;99.90
48454;DHT22;34261;55.678;12.464;2023-12-29T20:57:57;8.30;99.90
48454;DHT22;34261;55.678;12.464;2023-12-29T21:00:23;8.20;99.90
48454;DHT22;34261;55.678;12.464;2023-12-29T21:02:49;8.20;99.90
48454;DHT22;34261;55.678;12.464;2023-12-29T21:05:15;8.10;99.90
48454;DHT22;34261;55.678;12.464;2023-12-29T21:07:41;8.10;99.90
48454;DHT22;34261;55.678;12.464;2023-12-29T21:10:07;8.20;99.90
48454;DHT22;34261;55.678;12.464;2023-12-29T21:12:33;8.20;99.90
48454;DHT22;34261;55.678;12.464;2023-12-29T21:14:58;8.20;99.90
48454;DHT22;34261;55.678;12.464;2023-12-29T21:17:24;8.20;99.90
48454;DHT22;34261;55.678;12.464;2023-12-29T21:19:50;8.30;99.90
48454;DHT22;34261;55.678;12.464;2023-12-29T21:22:16;8.20;99.90
48454;DHT22;34261;55.678;12.464;2023-12-29T21:24:41;8.20;99.90
48454;DHT22;34261;55.678;12.464;2023-12-29T21:27:07;8.20;99.90
48454;DHT22;34261;55.678;12.464;2023-12-29T21:29:33;8.20;99.90